WetterOnline ( https://www.wetteronline.de )

Wetter aktuell Alken

Aktuelles Wetter: Andernach (75m)

6-stündlich | Neueste Meldungen
Ortszeit Temperatur Wetter
Fr, 28.02. 1:00 3.3° C bewölkt
Do, 27.02. 19:00 1.7° C leichter Regen
Do, 27.02. 13:00 3.8° C leichter Regen
Do, 27.02. 7:00 2.7° C bedeckt
Do, 27.02. 1:00 3.7° C bedeckt
Mi, 26.02. 19:00 5.0° C bewölkt
Mi, 26.02. 13:00 5.8° C bewölkt
Mi, 26.02. 7:00 4.4° C bewölkt
Ortszeit Temperatur Wetter
Fr, 28.02. 3:30 2.6° C leicht bewölkt
Fr, 28.02. 3:20 2.6° C leicht bewölkt
Fr, 28.02. 3:10 2.6° C leicht bewölkt
Fr, 28.02. 3:00 3.1° C leicht bewölkt
Fr, 28.02. 2:50 3.1° C leicht bewölkt
Fr, 28.02. 2:40 3.3° C leicht bewölkt
Fr, 28.02. 2:30 3.5° C wolkenlos
Fr, 28.02. 2:00 3.5° C wolkenlos
Fr, 28.02. 1:30 3.6° C wolkenlos
Fr, 28.02. 1:00 3.3° C bewölkt
Fr, 28.02. 0:30 3.2° C bewölkt
Ortszeit Relative Feuchte Sichtweite
Fr, 28.02. 1:00 80% 40 km
Do, 27.02. 19:00 94% 19 km
Do, 27.02. 13:00 84% 13 km
Do, 27.02. 7:00 81% 45 km
Do, 27.02. 1:00 76% 50 km
Mi, 26.02. 19:00 66% 60 km
Mi, 26.02. 13:00 66% >70 km
Mi, 26.02. 7:00 63% 55 km
Ortszeit Relative Feuchte Sichtweite
Fr, 28.02. 3:30 80% 40 km
Fr, 28.02. 3:20 80% -
Fr, 28.02. 3:10 80% -
Fr, 28.02. 3:00 77% 40 km
Fr, 28.02. 2:50 77% -
Fr, 28.02. 2:40 75% -
Fr, 28.02. 2:30 74% 40 km
Fr, 28.02. 2:00 76% 40 km
Fr, 28.02. 1:30 76% 40 km
Fr, 28.02. 1:00 80% 40 km
Fr, 28.02. 0:30 81% 45 km
Ortszeit Niederschlagsmenge Niederschlagsart
Fr, 28.02. 1:00 2 l/m2 in 6 Std. Schnee, Regen
Do, 27.02. 19:00 10 l/m2 in 12 Std. Schnee, Regen
Do, 27.02. 13:00 0.4 l/m2 in 6 Std. Regen
Do, 27.02. 7:00 0.1 l/m2 in 12 Std. Regen
Do, 27.02. 1:00 0.0 l/m2 in 6 Std. -
Mi, 26.02. 19:00 0.1 l/m2 in 12 Std. Regen
Mi, 26.02. 13:00 0.1 l/m2 in 6 Std. Regen
Mi, 26.02. 7:00 2 l/m2 in 12 Std. Regen
Ortszeit Niederschlagsmenge Niederschlagsart
Fr, 28.02. 3:30 0.0 l/m2 in 1 Std. -
Fr, 28.02. 3:20 keine Meldung -
Fr, 28.02. 3:10 keine Meldung -
Fr, 28.02. 3:00 0.0 l/m2 in 1 Std. -
Fr, 28.02. 2:50 keine Meldung -
Fr, 28.02. 2:40 keine Meldung -
Fr, 28.02. 2:30 0.0 l/m2 in 1 Std. -
Fr, 28.02. 2:00 0.0 l/m2 in 1 Std. -
Fr, 28.02. 1:30 0.0 l/m2 in 1 Std. -
Fr, 28.02. 1:00 0.0 l/m2 in 1 Std. Schnee, Regen
Fr, 28.02. 0:30 0.0 l/m2 in 1 Std. -
Ortszeit Stärke Spitze Richtung
km/h Bft. km/h Grad Sektor
Fr, 28.02. 1:00 18 3 50 330° NW
Do, 27.02. 19:00 14 3 36 320° NW
Do, 27.02. 13:00 19 3 30 150° SO
Do, 27.02. 7:00 7 2 25 220° SW
Do, 27.02. 1:00 9 2 28 250° W
Mi, 26.02. 19:00 9 2 44 280° W
Mi, 26.02. 13:00 20 4 41 280° W
Mi, 26.02. 7:00 18 3 40 230° SW
Ortszeit Stärke Spitze Richtung
km/h Bft. km/h Grad Sektor
Fr, 28.02. 3:30 4 1 11 360° N
Fr, 28.02. 3:20 4 1 - 360° N
Fr, 28.02. 3:10 6 1 - 360° N
Fr, 28.02. 3:00 7 2 31 340° N
Fr, 28.02. 2:50 7 2 - 340° N
Fr, 28.02. 2:40 9 2 - 330° NW
Fr, 28.02. 2:30 13 3 31 310° NW
Fr, 28.02. 2:00 14 3 40 330° NW
Fr, 28.02. 1:30 20 4 41 320° NW
Fr, 28.02. 1:00 18 3 43 330° NW
Fr, 28.02. 0:30 24 4 44 330° NW
Ortszeit Untergrenze Bedeckung Gattung
total tief tief mittel hoch
Fr, 28.02. 1:00 540 m 7/8 7/8 - - -
Do, 27.02. 19:00 270 m 8/8 8/8 - - -
Do, 27.02. 13:00 540 m 7/8 7/8 - - -
Do, 27.02. 7:00 4200 m 8/8 8/8 - - -
Do, 27.02. 1:00 750 m 8/8 8/8 - - -
Mi, 26.02. 19:00 960 m 8/8 7/8 - - -
Mi, 26.02. 13:00 630 m 7/8 7/8 - - -
Mi, 26.02. 7:00 1230 m 8/8 7/8 - - -
Ortszeit Bedeckungsgrad in Achtel und Wolkenuntergrenze
Fr, 28.02. 3:30 3(1500m)
Fr, 28.02. 3:20 3(1500m)
Fr, 28.02. 3:10 4(1500m)
Fr, 28.02. 3:00 1(1290m)
Fr, 28.02. 2:50 1(1290m) 2(1500m)
Fr, 28.02. 2:40 1(1290m) 3(1500m)
Fr, 28.02. 2:30 1(1230m)
Fr, 28.02. 2:00 keine Wolken
Fr, 28.02. 1:30 keine Wolken
Fr, 28.02. 1:00 5(540m) 7(1170m) 7(1410m)
Fr, 28.02. 0:30 2(510m) 6(1020m) 7(1500m)
Ortszeit Luftdruck NN (hPa) Tendenz (hPa in 3 Std.)
Fr, 28.02. 1:00 1011 + 4,7
Do, 27.02. 19:00 998 + 5,0
Do, 27.02. 13:00 998 - 5,6
Do, 27.02. 7:00 1007 - 1,3
Do, 27.02. 1:00 1008 + 0,5
Mi, 26.02. 19:00 1006 + 3,0
Mi, 26.02. 13:00 1001 + 2,9
Mi, 26.02. 7:00 995 - 0,2
Ortszeit Luftdruck NN (hPa) Tendenz (hPa in 3 Std.)
Fr, 28.02. 3:30 1015 + 4,1
Fr, 28.02. 3:20 1015 keine Meldung
Fr, 28.02. 3:10 1015 keine Meldung
Fr, 28.02. 3:00 1014 + 4,3
Fr, 28.02. 2:50 1014 keine Meldung
Fr, 28.02. 2:40 1014 keine Meldung
Fr, 28.02. 2:30 1014 + 5,0
Fr, 28.02. 2:00 1013 + 4,9
Fr, 28.02. 1:30 1012 + 4,6
Fr, 28.02. 1:00 1011 + 4,7
Fr, 28.02. 0:30 1011 + 5,3
Ortszeit Schneehöhe (cm)
Fr, 28.02. 1:00 0
Do, 27.02. 19:00 0
Do, 27.02. 13:00 0
Do, 27.02. 7:00 0
Do, 27.02. 1:00 0
Mi, 26.02. 19:00 0
Mi, 26.02. 13:00 0
Mi, 26.02. 7:00 0
Ortszeit Schneehöhe (cm)
Fr, 28.02. 3:30 0
Fr, 28.02. 3:20 0
Fr, 28.02. 3:10 0
Fr, 28.02. 3:00 0
Fr, 28.02. 2:50 0
Fr, 28.02. 2:40 0
Fr, 28.02. 2:30 0
Fr, 28.02. 2:00 0
Fr, 28.02. 1:30 0
Fr, 28.02. 1:00 0
Fr, 28.02. 0:30 0
Link zu dieser Seite / Seite empfehlen

Das Wetter in ...